Time;durP1;ratioP1;P1;durP2;ratioP2;P2;SDS_P1;SDS_P2;PMS_P1;PMS_P2;Temp;Humidity;BMP_temperature;BMP_pressure;BME280_temperature;BME280_humidity;BME280_pressure;Samples;Min_cycle;Max_cycle;Signal;HPM_P1;HPM_P2
2022/08/16 00:00:21;;;;;;;3.35;2.50;;;;;;;;;;5001823;28;20065;-69
2022/08/16 00:02:47;;;;;;;7.32;3.55;;;;;;;;;;5008110;28;20038;-70
2022/08/16 00:05:14;;;;;;;5.18;3.22;;;;;;;;;;5006176;28;20599;-70
2022/08/16 00:07:40;;;;;;;4.45;2.97;;;;;;;;;;5006375;28;20608;-68
2022/08/16 00:10:08;;;;;;;4.68;3.00;;;;;;;;;;5008588;28;20136;-69
2022/08/16 00:12:34;;;;;;;5.88;2.80;;;;;;;;;;5005002;28;21481;-68
2022/08/16 00:15:04;;;;;;;5.03;2.85;;;;;;;;;;5007998;28;20406;-69
2022/08/16 00:17:30;;;;;;;4.32;2.88;;;;;;;;;;5008282;28;20168;-68
2022/08/16 00:19:55;;;;;;;3.88;2.67;;;;;;;;;;5008179;28;20022;-68
2022/08/16 00:22:22;;;;;;;5.75;3.45;;;;;;;;;;5004402;28;20141;-69
2022/08/16 00:24:48;;;;;;;4.72;2.75;;;;;;;;;;5007088;28;20104;-69
2022/08/16 00:27:13;;;;;;;4.13;2.80;;;;;;;;;;5006054;28;20044;-68
2022/08/16 00:29:39;;;;;;;3.13;2.60;;;;;;;;;;5008520;28;20077;-68
2022/08/16 00:32:06;;;;;;;4.55;2.83;;;;;;;;;;5009081;28;20042;-68
2022/08/16 00:34:32;;;;;;;3.53;2.53;;;;;;;;;;5008163;28;20255;-67
2022/08/16 00:36:58;;;;;;;4.13;2.63;;;;;;;;;;5006873;28;20038;-68
2022/08/16 00:39:23;;;;;;;3.75;2.95;;;;;;;;;;5006098;28;20516;-72
2022/08/16 00:41:50;;;;;;;4.88;2.63;;;;;;;;;;5004147;28;20076;-68
2022/08/16 00:44:19;;;;;;;4.82;2.70;;;;;;;;;;5007358;28;20041;-68
2022/08/16 00:47:07;;;;;;;4.47;2.92;;;;;;;;;;5006335;28;20025;-68
2022/08/16 00:49:34;;;;;;;4.15;2.88;;;;;;;;;;5006442;28;20081;-68
2022/08/16 00:52:00;;;;;;;4.35;2.70;;;;;;;;;;5006682;28;20037;-71
2022/08/16 00:54:29;;;;;;;4.03;2.47;;;;;;;;;;5006981;28;20042;-67
2022/08/16 00:56:57;;;;;;;3.47;2.63;;;;;;;;;;5008508;28;20048;-67
2022/08/16 00:59:27;;;;;;;4.88;2.88;;;;;;;;;;5006331;28;20240;-72
2022/08/16 01:01:53;;;;;;;3.97;2.70;;;;;;;;;;5007653;28;20092;-71
2022/08/16 01:04:21;;;;;;;4.22;2.97;;;;;;;;;;5006272;28;20133;-67
2022/08/16 01:06:48;;;;;;;5.18;2.70;;;;;;;;;;5007742;28;22025;-71
2022/08/16 01:09:14;;;;;;;6.10;2.80;;;;;;;;;;5008476;28;20095;-75
2022/08/16 01:11:40;;;;;;;3.20;2.58;;;;;;;;;;5008580;28;20073;-68
2022/08/16 01:14:22;;;;;;;9.57;2.97;;;;;;;;;;5009066;28;20136;-70
2022/08/16 01:16:49;;;;;;;5.63;2.58;;;;;;;;;;5005767;28;20033;-68
2022/08/16 01:19:22;;;;;;;6.57;2.50;;;;;;;;;;5007355;28;20064;-67
2022/08/16 01:22:02;;;;;;;4.95;2.60;;;;;;;;;;5007134;28;20037;-68
2022/08/16 01:24:33;;;;;;;3.45;2.70;;;;;;;;;;5007175;28;20056;-68
2022/08/16 01:27:08;;;;;;;3.92;2.78;;;;;;;;;;5006328;28;20057;-67
2022/08/16 01:29:39;;;;;;;3.67;2.67;;;;;;;;;;5007991;28;20069;-68
2022/08/16 01:32:04;;;;;;;4.47;2.90;;;;;;;;;;5005975;28;20026;-72
2022/08/16 01:34:30;;;;;;;4.13;2.75;;;;;;;;;;5008045;28;20025;-67
2022/08/16 01:37:07;;;;;;;5.05;2.55;;;;;;;;;;5009502;28;20057;-68
2022/08/16 01:39:33;;;;;;;3.92;2.67;;;;;;;;;;5006638;28;20042;-67
2022/08/16 01:41:59;;;;;;;3.67;2.72;;;;;;;;;;5007730;28;20125;-68
2022/08/16 01:44:25;;;;;;;3.33;2.65;;;;;;;;;;5003337;28;20770;-68
2022/08/16 01:46:52;;;;;;;3.67;2.70;;;;;;;;;;5004577;28;20087;-68
2022/08/16 01:49:27;;;;;;;3.65;2.75;;;;;;;;;;5004109;28;20045;-68
2022/08/16 01:51:56;;;;;;;5.05;2.83;;;;;;;;;;5003696;28;20030;-67
2022/08/16 01:54:22;;;;;;;4.40;3.05;;;;;;;;;;5002100;28;20046;-67
2022/08/16 01:56:47;;;;;;;7.20;3.20;;;;;;;;;;5001651;28;20038;-67
2022/08/16 01:59:13;;;;;;;4.03;3.30;;;;;;;;;;5004344;28;20562;-69
2022/08/16 02:01:39;;;;;;;5.70;3.50;;;;;;;;;;5004779;28;20033;-67
2022/08/16 02:04:05;;;;;;;4.72;3.55;;;;;;;;;;5006119;28;20038;-68
2022/08/16 02:06:31;;;;;;;5.35;3.50;;;;;;;;;;5001253;28;20068;-68
2022/08/16 02:08:56;;;;;;;6.00;3.55;;;;;;;;;;5004581;28;20030;-68
2022/08/16 02:11:23;;;;;;;6.28;3.38;;;;;;;;;;5003744;28;20041;-71
2022/08/16 02:13:49;;;;;;;8.45;3.47;;;;;;;;;;5004179;28;20025;-68
2022/08/16 02:16:14;;;;;;;4.38;3.08;;;;;;;;;;5000531;28;20478;-73
2022/08/16 02:18:40;;;;;;;5.03;3.40;;;;;;;;;;5005747;28;20061;-69
2022/08/16 02:21:08;;;;;;;4.93;3.60;;;;;;;;;;5004094;28;20042;-68
2022/08/16 02:23:35;;;;;;;6.25;3.78;;;;;;;;;;5001333;28;20034;-76
2022/08/16 02:26:01;;;;;;;5.28;3.30;;;;;;;;;;5005105;28;20445;-68
2022/08/16 02:28:27;;;;;;;5.18;3.20;;;;;;;;;;5007358;28;20038;-69
2022/08/16 02:30:54;;;;;;;7.32;3.45;;;;;;;;;;5003327;28;20049;-68
2022/08/16 02:33:21;;;;;;;6.50;3.70;;;;;;;;;;5003198;28;20051;-67
2022/08/16 02:35:47;;;;;;;4.28;3.28;;;;;;;;;;5002103;28;20177;-67
2022/08/16 02:38:12;;;;;;;5.65;3.42;;;;;;;;;;5003199;28;20926;-67
2022/08/16 02:40:38;;;;;;;4.70;2.92;;;;;;;;;;5001025;28;20038;-68
2022/08/16 02:43:04;;;;;;;5.95;3.10;;;;;;;;;;5003840;28;20487;-67
2022/08/16 02:45:30;;;;;;;8.40;3.78;;;;;;;;;;5003068;28;20041;-67
2022/08/16 02:47:56;;;;;;;4.97;3.50;;;;;;;;;;5005852;28;20049;-68
2022/08/16 02:50:21;;;;;;;3.83;3.35;;;;;;;;;;5002918;28;20038;-68
2022/08/16 02:52:47;;;;;;;6.85;3.33;;;;;;;;;;5002315;28;20021;-73
2022/08/16 02:55:13;;;;;;;4.90;3.25;;;;;;;;;;5001102;28;20034;-68
2022/08/16 02:57:38;;;;;;;5.85;3.55;;;;;;;;;;5004251;28;20172;-68
2022/08/16 03:00:11;;;;;;;7.57;3.30;;;;;;;;;;5003644;28;20524;-68
2022/08/16 03:02:37;;;;;;;5.50;3.15;;;;;;;;;;5003454;28;20564;-67
2022/08/16 03:05:04;;;;;;;4.28;3.50;;;;;;;;;;5006723;28;20029;-68
2022/08/16 03:07:29;;;;;;;4.97;3.42;;;;;;;;;;5003712;28;20041;-68
2022/08/16 03:09:56;;;;;;;5.15;3.50;;;;;;;;;;5004359;28;20108;-68
2022/08/16 03:12:22;;;;;;;5.45;3.40;;;;;;;;;;5003500;28;20041;-67
2022/08/16 03:14:47;;;;;;;4.78;3.17;;;;;;;;;;5005083;28;20076;-67
2022/08/16 03:17:13;;;;;;;4.85;3.22;;;;;;;;;;5002673;28;20057;-68
2022/08/16 03:19:38;;;;;;;6.05;3.45;;;;;;;;;;5004334;28;20129;-68
2022/08/16 03:22:04;;;;;;;5.18;3.03;;;;;;;;;;5003027;28;20049;-67
2022/08/16 03:24:29;;;;;;;5.80;3.13;;;;;;;;;;5002768;28;20156;-67
2022/08/16 03:26:58;;;;;;;4.88;2.97;;;;;;;;;;5001563;28;20080;-68
2022/08/16 03:29:26;;;;;;;3.83;3.10;;;;;;;;;;4999211;28;20104;-72
2022/08/16 03:31:52;;;;;;;4.53;3.13;;;;;;;;;;5004449;28;21602;-71
2022/08/16 03:34:18;;;;;;;3.45;3.08;;;;;;;;;;5004332;28;20080;-67
2022/08/16 03:36:43;;;;;;;5.30;3.75;;;;;;;;;;5002645;28;20081;-68
2022/08/16 03:39:08;;;;;;;12.70;3.40;;;;;;;;;;5003746;28;20106;-69
2022/08/16 03:41:34;;;;;;;4.68;3.38;;;;;;;;;;5005075;28;20053;-66
2022/08/16 03:43:59;;;;;;;5.50;3.47;;;;;;;;;;5004847;28;20113;-69
2022/08/16 03:46:24;;;;;;;7.18;3.30;;;;;;;;;;5003283;28;20037;-69
2022/08/16 03:48:50;;;;;;;4.10;3.30;;;;;;;;;;5005338;28;20030;-68
2022/08/16 03:51:16;;;;;;;5.82;3.40;;;;;;;;;;5004531;28;20120;-67
2022/08/16 03:53:42;;;;;;;5.40;3.15;;;;;;;;;;5004633;28;20052;-68
2022/08/16 03:56:09;;;;;;;7.00;3.30;;;;;;;;;;5004500;28;20033;-68
2022/08/16 03:58:35;;;;;;;5.88;3.17;;;;;;;;;;5004387;28;20103;-67
2022/08/16 04:01:01;;;;;;;6.15;2.92;;;;;;;;;;5004525;28;20498;-68
2022/08/16 04:03:28;;;;;;;3.63;3.25;;;;;;;;;;5003750;28;20038;-68
2022/08/16 04:05:54;;;;;;;4.13;3.25;;;;;;;;;;5004282;28;20065;-72
2022/08/16 04:08:20;;;;;;;5.22;3.13;;;;;;;;;;5004975;28;20580;-72
2022/08/16 04:10:47;;;;;;;6.18;3.65;;;;;;;;;;5007665;28;20029;-68
2022/08/16 04:13:13;;;;;;;4.65;3.08;;;;;;;;;;5004109;28;20049;-69
2022/08/16 04:15:38;;;;;;;5.72;3.28;;;;;;;;;;5007245;28;20045;-68
2022/08/16 04:18:05;;;;;;;7.13;3.40;;;;;;;;;;5002906;28;20046;-68
2022/08/16 04:20:31;;;;;;;4.10;3.28;;;;;;;;;;5003871;28;20065;-68
2022/08/16 04:22:57;;;;;;;5.72;3.28;;;;;;;;;;5003833;28;21052;-68
2022/08/16 04:25:23;;;;;;;3.65;3.15;;;;;;;;;;5005962;28;20034;-68
2022/08/16 04:27:49;;;;;;;4.35;3.00;;;;;;;;;;5005720;28;20037;-67
2022/08/16 04:30:16;;;;;;;4.43;3.40;;;;;;;;;;5005025;28;20042;-68
2022/08/16 04:32:43;;;;;;;7.28;3.30;;;;;;;;;;5004932;28;20410;-67
2022/08/16 04:35:12;;;;;;;10.45;3.78;;;;;;;;;;5005741;28;20033;-68
2022/08/16 04:37:37;;;;;;;4.40;3.50;;;;;;;;;;5008940;28;20343;-68
2022/08/16 04:40:04;;;;;;;5.05;3.70;;;;;;;;;;5003735;28;20042;-68
2022/08/16 04:42:29;;;;;;;5.80;3.90;;;;;;;;;;5003922;28;20468;-68
2022/08/16 04:44:57;;;;;;;8.07;3.70;;;;;;;;;;5004815;28;20137;-67
2022/08/16 04:47:30;;;;;;;7.82;4.07;;;;;;;;;;5005089;28;20080;-68
2022/08/16 04:49:55;;;;;;;7.30;3.75;;;;;;;;;;5003874;28;20029;-69
2022/08/16 04:52:21;;;;;;;5.15;3.88;;;;;;;;;;5007477;28;20719;-68
2022/08/16 04:54:46;;;;;;;5.22;3.88;;;;;;;;;;5001846;28;20136;-68
2022/08/16 04:57:11;;;;;;;6.07;4.00;;;;;;;;;;5004223;28;20042;-67
2022/08/16 04:59:37;;;;;;;4.65;3.70;;;;;;;;;;5004872;28;20568;-68
2022/08/16 05:02:03;;;;;;;6.25;4.07;;;;;;;;;;5003536;28;20041;-68
2022/08/16 05:04:28;;;;;;;5.45;3.90;;;;;;;;;;5004660;28;20354;-68
2022/08/16 05:06:54;;;;;;;5.57;3.85;;;;;;;;;;5002818;28;20471;-72
2022/08/16 05:09:19;;;;;;;6.65;3.30;;;;;;;;;;5005805;28;20087;-68
2022/08/16 05:11:45;;;;;;;5.65;3.65;;;;;;;;;;5005108;28;20049;-68
2022/08/16 05:14:10;;;;;;;6.95;3.75;;;;;;;;;;5006034;28;20038;-68
2022/08/16 05:16:36;;;;;;;5.97;3.50;;;;;;;;;;5003155;28;20021;-67
2022/08/16 05:19:03;;;;;;;7.40;3.40;;;;;;;;;;5005275;28;20388;-70
2022/08/16 05:21:30;;;;;;;4.35;3.13;;;;;;;;;;5004099;28;20069;-67
2022/08/16 05:23:56;;;;;;;7.20;3.55;;;;;;;;;;5002863;28;20046;-70
2022/08/16 05:26:23;;;;;;;8.07;3.88;;;;;;;;;;5004528;28;20123;-69
2022/08/16 05:28:48;;;;;;;4.20;3.33;;;;;;;;;;5007099;28;20033;-68
2022/08/16 05:31:15;;;;;;;5.43;3.40;;;;;;;;;;5003335;28;20041;-67
2022/08/16 05:33:41;;;;;;;5.18;3.42;;;;;;;;;;5003987;28;20038;-66
2022/08/16 05:36:07;;;;;;;4.82;3.45;;;;;;;;;;5006409;28;20038;-66
2022/08/16 05:38:33;;;;;;;4.72;3.85;;;;;;;;;;5006779;28;20088;-66
2022/08/16 05:41:01;;;;;;;7.90;4.18;;;;;;;;;;5016325;28;20036;-67
2022/08/16 05:43:27;;;;;;;5.47;4.30;;;;;;;;;;5005919;28;20033;-68
2022/08/16 05:45:54;;;;;;;5.07;4.40;;;;;;;;;;5005486;28;20496;-69
2022/08/16 05:48:20;;;;;;;7.05;4.60;;;;;;;;;;5003032;28;20118;-68
2022/08/16 05:50:46;;;;;;;7.40;4.57;;;;;;;;;;5002459;28;20041;-68
2022/08/16 05:53:11;;;;;;;5.45;4.32;;;;;;;;;;5004415;28;20520;-69
2022/08/16 05:55:36;;;;;;;5.80;4.25;;;;;;;;;;5005684;28;20107;-71
2022/08/16 05:58:02;;;;;;;7.03;4.20;;;;;;;;;;5001476;28;20101;-68
2022/08/16 06:00:28;;;;;;;9.00;4.45;;;;;;;;;;5003711;28;20064;-68
2022/08/16 06:02:56;;;;;;;6.65;4.30;;;;;;;;;;5000061;28;20054;-70
2022/08/16 06:05:21;;;;;;;6.22;4.20;;;;;;;;;;5005028;28;20041;-69
2022/08/16 06:07:47;;;;;;;5.88;4.00;;;;;;;;;;5001364;28;20026;-68
2022/08/16 06:10:12;;;;;;;6.68;4.15;;;;;;;;;;5005465;28;20052;-70
2022/08/16 06:12:38;;;;;;;5.85;4.57;;;;;;;;;;5002956;28;20048;-67
2022/08/16 06:15:07;;;;;;;6.57;4.18;;;;;;;;;;5004050;28;21706;-67
2022/08/16 06:17:33;;;;;;;6.43;4.80;;;;;;;;;;5004211;28;20034;-67
2022/08/16 06:19:58;;;;;;;7.10;4.63;;;;;;;;;;5004440;28;20076;-67
2022/08/16 06:22:24;;;;;;;5.82;4.53;;;;;;;;;;5002937;28;20064;-68
2022/08/16 06:24:49;;;;;;;7.18;4.70;;;;;;;;;;5003708;28;20084;-69
2022/08/16 06:27:15;;;;;;;5.53;4.50;;;;;;;;;;5001045;28;20088;-66
2022/08/16 06:29:40;;;;;;;5.75;4.25;;;;;;;;;;5001275;28;20037;-67
2022/08/16 06:32:06;;;;;;;5.40;4.60;;;;;;;;;;5001797;28;21232;-66
2022/08/16 06:34:31;;;;;;;6.53;4.80;;;;;;;;;;5006456;28;20025;-67
2022/08/16 06:36:57;;;;;;;7.53;5.00;;;;;;;;;;5002570;28;20042;-73
2022/08/16 06:39:22;;;;;;;5.85;4.28;;;;;;;;;;5003285;28;20033;-67
2022/08/16 06:41:48;;;;;;;8.07;5.03;;;;;;;;;;5018494;28;20452;-68
2022/08/16 06:44:13;;;;;;;9.18;5.85;;;;;;;;;;5005300;28;20065;-69
2022/08/16 06:46:39;;;;;;;5.82;4.75;;;;;;;;;;5002721;28;20036;-66
2022/08/16 06:49:07;;;;;;;5.72;4.45;;;;;;;;;;5004318;28;20137;-68
2022/08/16 06:51:34;;;;;;;10.30;4.85;;;;;;;;;;4999952;28;20041;-68
2022/08/16 06:54:00;;;;;;;9.95;5.18;;;;;;;;;;5002449;28;20121;-67
2022/08/16 06:56:25;;;;;;;11.80;5.75;;;;;;;;;;5000164;28;20045;-67
2022/08/16 06:58:52;;;;;;;7.97;5.20;;;;;;;;;;5001810;28;20034;-67
2022/08/16 07:01:19;;;;;;;7.22;4.47;;;;;;;;;;5004202;28;20053;-69
2022/08/16 07:03:44;;;;;;;7.65;4.45;;;;;;;;;;5002087;28;20062;-69
2022/08/16 07:06:10;;;;;;;5.15;4.65;;;;;;;;;;5004046;28;20060;-69
2022/08/16 07:08:36;;;;;;;6.72;4.70;;;;;;;;;;5003017;28;20045;-71
2022/08/16 07:11:02;;;;;;;8.25;5.25;;;;;;;;;;5002234;28;20461;-68
2022/08/16 07:13:29;;;;;;;5.93;4.88;;;;;;;;;;5002541;28;20040;-68
2022/08/16 07:15:56;;;;;;;5.10;4.15;;;;;;;;;;5003298;28;20574;-66
2022/08/16 07:18:22;;;;;;;7.60;4.40;;;;;;;;;;5005562;28;20034;-67
2022/08/16 07:20:48;;;;;;;5.80;4.22;;;;;;;;;;5001954;28;20544;-68
2022/08/16 07:23:14;;;;;;;10.63;4.60;;;;;;;;;;5000852;28;20034;-68
2022/08/16 07:25:40;;;;;;;5.00;4.07;;;;;;;;;;4995898;28;20038;-68
2022/08/16 07:28:06;;;;;;;6.78;4.70;;;;;;;;;;5002497;28;20154;-68
2022/08/16 07:30:33;;;;;;;6.07;4.60;;;;;;;;;;5004130;28;20964;-68
2022/08/16 07:32:58;;;;;;;5.50;4.40;;;;;;;;;;5004313;28;20084;-67
2022/08/16 07:35:24;;;;;;;4.85;4.20;;;;;;;;;;5000389;28;20045;-68
2022/08/16 07:37:49;;;;;;;5.85;3.92;;;;;;;;;;5002561;28;20160;-68
2022/08/16 07:40:15;;;;;;;6.03;4.07;;;;;;;;;;5002080;28;20041;-70
2022/08/16 07:42:41;;;;;;;5.85;3.63;;;;;;;;;;5004911;28;20464;-68
2022/08/16 07:45:08;;;;;;;6.53;4.20;;;;;;;;;;5006065;28;20438;-68
2022/08/16 07:47:33;;;;;;;6.00;4.05;;;;;;;;;;5006702;28;20410;-68
2022/08/16 07:49:59;;;;;;;9.20;4.55;;;;;;;;;;5005067;28;20037;-68
2022/08/16 07:52:25;;;;;;;6.45;4.25;;;;;;;;;;5005899;28;20346;-68
2022/08/16 07:54:50;;;;;;;8.70;4.45;;;;;;;;;;5003298;28;20094;-68
2022/08/16 07:57:16;;;;;;;7.22;4.30;;;;;;;;;;5004888;28;20042;-71
2022/08/16 07:59:43;;;;;;;13.32;4.70;;;;;;;;;;5004983;28;20512;-67
2022/08/16 08:02:09;;;;;;;7.88;4.45;;;;;;;;;;5006707;28;20034;-68
2022/08/16 08:04:35;;;;;;;4.85;4.05;;;;;;;;;;5004185;28;20072;-68
2022/08/16 08:07:01;;;;;;;4.53;3.50;;;;;;;;;;5008242;28;20045;-68
2022/08/16 08:09:26;;;;;;;5.90;3.47;;;;;;;;;;5010676;28;20136;-68
2022/08/16 08:11:52;;;;;;;4.55;3.50;;;;;;;;;;5007500;28;20049;-68
2022/08/16 08:14:17;;;;;;;7.80;3.78;;;;;;;;;;5011786;28;20091;-69
2022/08/16 08:16:43;;;;;;;4.70;3.58;;;;;;;;;;5007968;28;20076;-70
2022/08/16 08:19:11;;;;;;;5.88;3.88;;;;;;;;;;5008531;28;20037;-69
2022/08/16 08:21:39;;;;;;;9.30;4.63;;;;;;;;;;5005289;28;20097;-68
2022/08/16 08:24:06;;;;;;;7.95;5.32;;;;;;;;;;5007758;28;20521;-69
2022/08/16 08:26:32;;;;;;;5.88;3.70;;;;;;;;;;5005611;28;20382;-67
2022/08/16 08:28:58;;;;;;;7.53;3.75;;;;;;;;;;5006786;28;20022;-67
2022/08/16 08:31:23;;;;;;;6.40;3.60;;;;;;;;;;5008819;28;20080;-67
2022/08/16 08:33:49;;;;;;;7.40;3.92;;;;;;;;;;5006260;28;20476;-69
2022/08/16 08:36:22;;;;;;;9.35;3.95;;;;;;;;;;5005140;28;20040;-67
2022/08/16 08:38:49;;;;;;;5.85;4.13;;;;;;;;;;5007004;28;20042;-69
2022/08/16 08:41:15;;;;;;;9.18;4.25;;;;;;;;;;5005422;28;20044;-68
2022/08/16 08:43:41;;;;;;;10.05;3.60;;;;;;;;;;5007402;28;20026;-68
2022/08/16 08:46:07;;;;;;;6.55;4.28;;;;;;;;;;5004275;28;20041;-67
2022/08/16 08:48:32;;;;;;;5.88;3.90;;;;;;;;;;5005563;28;20405;-68
2022/08/16 08:50:58;;;;;;;6.05;3.95;;;;;;;;;;5006743;28;20041;-67
2022/08/16 08:53:25;;;;;;;5.88;2.97;;;;;;;;;;5007577;28;20048;-69
2022/08/16 08:55:51;;;;;;;5.22;3.25;;;;;;;;;;5005857;28;20032;-67
2022/08/16 08:58:16;;;;;;;4.28;3.20;;;;;;;;;;5010118;28;20030;-69
2022/08/16 09:00:42;;;;;;;6.60;3.83;;;;;;;;;;5006247;28;20040;-67
2022/08/16 09:03:07;;;;;;;4.47;3.35;;;;;;;;;;5004178;28;20030;-68
2022/08/16 09:05:33;;;;;;;4.53;3.20;;;;;;;;;;5003944;28;20034;-67
2022/08/16 09:07:59;;;;;;;4.55;3.75;;;;;;;;;;5006476;28;20025;-67
2022/08/16 09:10:24;;;;;;;5.20;3.70;;;;;;;;;;5004670;28;20528;-68
2022/08/16 09:12:50;;;;;;;5.05;3.30;;;;;;;;;;5005833;28;20072;-68
2022/08/16 09:15:16;;;;;;;7.15;3.85;;;;;;;;;;5004810;28;20041;-67
2022/08/16 09:17:43;;;;;;;9.30;4.18;;;;;;;;;;5003736;28;20100;-68
2022/08/16 09:20:13;;;;;;;8.20;4.55;;;;;;;;;;5007359;28;20115;-67
2022/08/16 09:22:39;;;;;;;4.90;3.25;;;;;;;;;;5023258;28;20397;-67
2022/08/16 09:25:05;;;;;;;4.30;3.10;;;;;;;;;;5003191;28;20042;-68
2022/08/16 09:27:31;;;;;;;4.38;2.88;;;;;;;;;;5000977;28;20037;-68
2022/08/16 09:29:56;;;;;;;6.20;3.80;;;;;;;;;;5003765;28;20041;-70
2022/08/16 09:32:22;;;;;;;3.72;3.30;;;;;;;;;;5005978;28;20038;-67
2022/08/16 09:34:47;;;;;;;3.15;2.83;;;;;;;;;;5004418;28;20175;-67
2022/08/16 09:37:14;;;;;;;7.60;3.30;;;;;;;;;;5005203;28;20038;-67
2022/08/16 09:39:41;;;;;;;3.60;3.00;;;;;;;;;;5002663;28;20109;-68
2022/08/16 09:42:06;;;;;;;4.30;3.25;;;;;;;;;;5005775;28;20053;-67
2022/08/16 09:44:32;;;;;;;3.92;2.80;;;;;;;;;;5002740;28;21216;-66
2022/08/16 09:46:57;;;;;;;5.22;3.40;;;;;;;;;;5004991;28;20045;-68
2022/08/16 09:49:25;;;;;;;4.65;3.35;;;;;;;;;;5006124;28;20589;-66
2022/08/16 09:51:53;;;;;;;3.42;3.13;;;;;;;;;;5000567;28;20068;-68
2022/08/16 09:54:24;;;;;;;4.78;2.80;;;;;;;;;;5002424;28;20058;-66
2022/08/16 09:56:50;;;;;;;4.13;3.08;;;;;;;;;;5004234;28;21092;-68
2022/08/16 09:59:16;;;;;;;4.13;2.60;;;;;;;;;;5007593;28;20050;-66
2022/08/16 10:01:43;;;;;;;4.70;2.58;;;;;;;;;;5004314;28;20173;-67
2022/08/16 10:04:10;;;;;;;3.67;2.28;;;;;;;;;;5006965;28;20042;-70
2022/08/16 10:06:36;;;;;;;5.68;2.40;;;;;;;;;;5005513;28;20038;-67
2022/08/16 10:09:04;;;;;;;3.75;2.70;;;;;;;;;;5005617;28;20037;-67
2022/08/16 10:14:29;;;;;;;2.35;2.15;;;;;;;;;;4968473;28;20501;-68
2022/08/16 10:16:57;;;;;;;4.93;2.40;;;;;;;;;;5000925;28;20038;-68
2022/08/16 10:19:22;;;;;;;2.75;2.42;;;;;;;;;;5006244;28;20140;-67
2022/08/16 10:21:48;;;;;;;3.80;2.88;;;;;;;;;;5005375;28;20117;-68
2022/08/16 10:24:14;;;;;;;3.35;2.50;;;;;;;;;;5006705;28;20045;-67
2022/08/16 10:26:40;;;;;;;5.30;2.30;;;;;;;;;;5003906;28;20079;-67
2022/08/16 10:29:06;;;;;;;2.47;2.28;;;;;;;;;;5004944;28;20052;-67
2022/08/16 10:31:32;;;;;;;2.65;1.90;;;;;;;;;;5001468;28;20032;-67
2022/08/16 10:34:00;;;;;;;2.72;2.03;;;;;;;;;;5007318;28;20112;-67
2022/08/16 10:36:26;;;;;;;2.72;2.40;;;;;;;;;;5003368;28;20034;-66
2022/08/16 10:38:51;;;;;;;3.50;2.20;;;;;;;;;;5003395;28;20195;-65
2022/08/16 10:41:17;;;;;;;4.70;2.42;;;;;;;;;;5004650;28;20145;-67
2022/08/16 10:43:46;;;;;;;3.33;2.40;;;;;;;;;;5007103;28;20057;-69
2022/08/16 10:46:13;;;;;;;3.13;1.95;;;;;;;;;;5002738;28;20562;-66
2022/08/16 10:48:40;;;;;;;5.07;2.10;;;;;;;;;;5005424;28;20034;-66
2022/08/16 10:51:06;;;;;;;4.95;2.20;;;;;;;;;;5004844;28;20038;-67
2022/08/16 10:53:33;;;;;;;4.60;2.30;;;;;;;;;;5003119;28;20077;-67
2022/08/16 10:55:59;;;;;;;2.53;2.33;;;;;;;;;;5004363;28;20037;-71
2022/08/16 10:58:25;;;;;;;2.47;2.28;;;;;;;;;;5004288;28;20029;-68
2022/08/16 11:00:52;;;;;;;4.43;2.13;;;;;;;;;;4996090;28;21436;-68
2022/08/16 11:03:18;;;;;;;4.05;2.63;;;;;;;;;;5000440;28;20497;-67
2022/08/16 11:05:45;;;;;;;5.13;2.40;;;;;;;;;;5000879;28;20360;-68
2022/08/16 11:08:11;;;;;;;3.95;2.22;;;;;;;;;;5001221;28;20072;-68
2022/08/16 11:10:40;;;;;;;4.35;2.33;;;;;;;;;;5003791;28;20049;-67
2022/08/16 11:13:06;;;;;;;6.03;2.40;;;;;;;;;;4992850;28;20235;-69
2022/08/16 11:15:33;;;;;;;3.72;2.38;;;;;;;;;;4998585;28;20584;-67
2022/08/16 11:17:59;;;;;;;3.78;2.42;;;;;;;;;;5003110;28;20034;-68
2022/08/16 11:20:27;;;;;;;3.20;2.45;;;;;;;;;;5003711;28;20460;-66
2022/08/16 11:22:53;;;;;;;3.22;2.67;;;;;;;;;;5004432;28;20030;-67
2022/08/16 11:25:22;;;;;;;2.53;2.33;;;;;;;;;;5003873;28;20034;-68
2022/08/16 11:27:49;;;;;;;2.65;2.45;;;;;;;;;;5003833;28;20129;-66
2022/08/16 11:30:16;;;;;;;3.17;2.20;;;;;;;;;;5003312;28;20100;-69
2022/08/16 11:32:44;;;;;;;4.15;2.33;;;;;;;;;;4998495;28;20057;-70
2022/08/16 11:35:15;;;;;;;4.10;2.45;;;;;;;;;;5001797;28;20026;-72
2022/08/16 11:37:47;;;;;;;4.22;2.30;;;;;;;;;;5000741;28;20545;-69
2022/08/16 11:40:14;;;;;;;6.88;2.20;;;;;;;;;;5004611;28;20042;-72
2022/08/16 11:42:39;;;;;;;4.10;2.22;;;;;;;;;;5005374;28;20042;-70
2022/08/16 11:45:05;;;;;;;5.07;2.17;;;;;;;;;;5000818;28;20096;-70
2022/08/16 11:47:31;;;;;;;2.80;2.30;;;;;;;;;;5001642;28;20390;-70
2022/08/16 11:49:56;;;;;;;7.40;2.55;;;;;;;;;;5001376;28;20582;-74
2022/08/16 11:52:22;;;;;;;2.88;2.15;;;;;;;;;;5004338;28;20030;-69
2022/08/16 11:54:48;;;;;;;3.67;2.30;;;;;;;;;;5003340;28;20631;-72
2022/08/16 11:57:14;;;;;;;4.28;2.15;;;;;;;;;;5002968;28;20049;-70
2022/08/16 11:59:39;;;;;;;3.83;2.08;;;;;;;;;;5000363;28;20034;-74
2022/08/16 12:02:06;;;;;;;2.30;2.10;;;;;;;;;;4996004;28;20124;-71
2022/08/16 12:04:32;;;;;;;2.83;2.17;;;;;;;;;;5000307;28;20385;-70
2022/08/16 12:06:59;;;;;;;4.72;2.33;;;;;;;;;;4995270;28;20480;-71
2022/08/16 12:09:26;;;;;;;2.47;2.28;;;;;;;;;;4999244;28;20069;-71
2022/08/16 12:11:51;;;;;;;3.22;2.28;;;;;;;;;;5001990;28;20054;-73
2022/08/16 12:14:17;;;;;;;3.90;2.35;;;;;;;;;;5001351;28;20065;-69
2022/08/16 12:16:42;;;;;;;2.60;2.22;;;;;;;;;;5003688;28;20091;-71
2022/08/16 12:19:09;;;;;;;2.70;2.38;;;;;;;;;;5001801;28;20213;-69
2022/08/16 12:21:34;;;;;;;2.53;2.33;;;;;;;;;;4998918;28;20037;-70
2022/08/16 12:24:01;;;;;;;2.80;2.17;;;;;;;;;;4998539;28;20069;-70
2022/08/16 12:26:26;;;;;;;2.95;2.40;;;;;;;;;;5001159;28;20049;-67
2022/08/16 12:28:52;;;;;;;4.10;2.38;;;;;;;;;;5002470;28;20038;-70
2022/08/16 12:31:19;;;;;;;4.75;2.22;;;;;;;;;;5002021;28;20069;-73
2022/08/16 12:33:44;;;;;;;2.60;2.20;;;;;;;;;;5005397;28;20030;-70
2022/08/16 12:36:10;;;;;;;3.08;2.58;;;;;;;;;;5003842;28;20056;-70
2022/08/16 12:38:36;;;;;;;4.57;2.15;;;;;;;;;;5004498;28;20066;-74
2022/08/16 12:41:01;;;;;;;4.85;2.20;;;;;;;;;;5007346;28;20038;-71
2022/08/16 12:43:27;;;;;;;2.30;2.00;;;;;;;;;;5006662;28;20030;-71
2022/08/16 12:45:54;;;;;;;4.60;2.08;;;;;;;;;;5004989;28;20100;-70
2022/08/16 12:51:12;;;;;;;3.03;1.92;;;;;;;;;;5007988;28;20507;-70
2022/08/16 12:53:37;;;;;;;5.13;2.22;;;;;;;;;;5002750;28;20540;-71
2022/08/16 12:56:05;;;;;;;2.67;2.20;;;;;;;;;;5006108;28;20029;-68
2022/08/16 12:58:31;;;;;;;4.20;2.22;;;;;;;;;;5000872;28;20026;-66
2022/08/16 13:00:58;;;;;;;3.00;2.20;;;;;;;;;;5004619;28;20050;-67
2022/08/16 13:03:23;;;;;;;4.50;2.20;;;;;;;;;;5007799;28;20088;-66
2022/08/16 13:05:49;;;;;;;2.47;2.10;;;;;;;;;;5004438;28;20490;-68
2022/08/16 13:08:18;;;;;;;5.95;2.30;;;;;;;;;;5005435;28;20045;-68
2022/08/16 13:10:47;;;;;;;2.97;2.38;;;;;;;;;;5006790;28;20018;-68
2022/08/16 13:13:25;;;;;;;4.93;2.30;;;;;;;;;;5005159;28;20042;-68
2022/08/16 13:15:59;;;;;;;3.03;2.30;;;;;;;;;;5004614;28;20049;-68
2022/08/16 13:18:26;;;;;;;2.85;2.00;;;;;;;;;;5007604;28;20092;-67
2022/08/16 13:20:52;;;;;;;4.53;2.55;;;;;;;;;;5005982;28;20045;-68
2022/08/16 13:23:18;;;;;;;3.22;2.13;;;;;;;;;;5002307;28;20520;-72
2022/08/16 13:25:45;;;;;;;3.42;2.10;;;;;;;;;;5006313;28;20034;-67
2022/08/16 13:28:12;;;;;;;2.65;2.20;;;;;;;;;;5004776;28;21665;-68
2022/08/16 13:30:48;;;;;;;4.57;2.22;;;;;;;;;;5004770;28;20105;-67
2022/08/16 13:33:23;;;;;;;4.15;1.90;;;;;;;;;;5006429;28;20041;-67
2022/08/16 13:35:51;;;;;;;8.73;2.05;;;;;;;;;;5005317;28;20402;-68
2022/08/16 13:38:17;;;;;;;4.20;2.17;;;;;;;;;;5006964;28;20060;-68
2022/08/16 13:40:43;;;;;;;4.05;2.38;;;;;;;;;;5005794;28;20038;-66
2022/08/16 13:43:08;;;;;;;3.75;2.00;;;;;;;;;;5006288;28;20038;-68
2022/08/16 13:45:34;;;;;;;3.67;2.00;;;;;;;;;;5005136;28;20466;-67
2022/08/16 13:48:00;;;;;;;3.05;2.00;;;;;;;;;;5005193;28;20049;-66
2022/08/16 13:50:26;;;;;;;2.17;2.05;;;;;;;;;;5005302;28;20048;-68
2022/08/16 13:52:56;;;;;;;2.13;1.73;;;;;;;;;;5006691;28;21191;-67
2022/08/16 13:55:21;;;;;;;4.43;2.20;;;;;;;;;;5005943;28;20045;-67
2022/08/16 13:57:47;;;;;;;3.65;1.98;;;;;;;;;;5005112;28;20040;-68
2022/08/16 14:00:14;;;;;;;3.75;2.10;;;;;;;;;;5006193;28;20125;-68
2022/08/16 14:02:39;;;;;;;3.63;1.85;;;;;;;;;;5006619;28;20042;-68
2022/08/16 14:05:05;;;;;;;4.00;2.20;;;;;;;;;;5007566;28;20025;-67
2022/08/16 14:07:31;;;;;;;4.07;2.20;;;;;;;;;;5006624;28;20034;-68
2022/08/16 14:09:56;;;;;;;2.75;2.17;;;;;;;;;;5005450;28;20382;-67
2022/08/16 14:12:26;;;;;;;2.40;2.10;;;;;;;;;;5002552;28;20041;-66
2022/08/16 14:14:52;;;;;;;3.95;2.03;;;;;;;;;;5003362;28;20042;-66
2022/08/16 14:17:19;;;;;;;3.13;2.20;;;;;;;;;;5006901;28;20077;-67
2022/08/16 14:19:45;;;;;;;2.80;2.00;;;;;;;;;;5009249;28;20029;-67
2022/08/16 14:22:17;;;;;;;6.93;2.08;;;;;;;;;;5007913;28;20045;-67
2022/08/16 14:24:44;;;;;;;2.67;2.15;;;;;;;;;;5003517;28;20061;-67
2022/08/16 14:27:10;;;;;;;4.75;1.95;;;;;;;;;;5005151;28;20441;-68
2022/08/16 14:29:36;;;;;;;1.75;1.63;;;;;;;;;;5003407;28;20042;-66
2022/08/16 14:32:04;;;;;;;3.10;2.10;;;;;;;;;;5005284;28;20079;-67
2022/08/16 14:34:29;;;;;;;4.80;2.20;;;;;;;;;;5004872;28;20095;-68
2022/08/16 14:36:55;;;;;;;3.30;2.15;;;;;;;;;;5005147;28;20060;-68
2022/08/16 14:39:20;;;;;;;2.95;2.10;;;;;;;;;;5004582;28;20053;-67
2022/08/16 14:41:46;;;;;;;4.93;2.08;;;;;;;;;;5002245;28;20575;-66
2022/08/16 14:44:11;;;;;;;4.07;1.80;;;;;;;;;;5002586;28;20044;-68